Ardmore, PA

7:08 AM EDT on October 02, 2014 (GMT -0400)
Havertown | Change Station
CLOSE
Current Station
Personal Weather Station
Location: Havertown, PA
Elevation: 310 ft
Nearby Weather Stations

Elev 310 ft 39.97 °N, 75.31 °W | Updated 3 minutes ago

Mostly Cloudy
Mostly Cloudy
60.1 °F
Feels Like 60.1 °F
N
3.0
Wind Variable Wind from NNE
Gusts 6.0 mph

Today
High -- | Low -- °F
--% Chance of Precip.
Yesterday
High -- | Low -- °F
Precip. -- in
6:58 AM 6:41 PM
First Quarter, 57% visible
Pressure 30.12 in
Visibility 10.0 miles
Clouds Mostly Cloudy 2000 ft
Mostly Cloudy 2700 ft
Mostly Cloudy 4500 ft
Dew Point 58 °F
Humidity 93%
Rainfall 0.00 in
Snow Depth Not available.
UV 0 out of 12
Pollen 2.20 out of 12
Ozone Good
PM2.5 Moderate
Flu Activity Not available.
METAR KPHL 021054Z 04007KT 10SM BKN020 BKN027 BKN045 17/13 A3011 RMK AO2 SLP197 T01720133 $

More Conditions Fewer Conditions

Pressure 30.12 in
Visibility 10.0 miles
Clouds Mostly Cloudy 2000 ft
Mostly Cloudy 2700 ft
Mostly Cloudy 4500 ft
Dew Point 58 °F
Humidity 93%
Rainfall 0.00 in
Snow Depth Not available.
UV 0 out of 12
Pollen 2.20 out of 12
Ozone Good
PM2.5 Moderate
Flu Activity Not available.
METAR KPHL 021054Z 04007KT 10SM BKN020 BKN027 BKN045 17/13 A3011 RMK AO2 SLP197 T01720133 $

More Conditions Fewer Conditions

10-Day Weather Forecast

Almanac

Astronomy

Oct. 02, 2014 Rise Set
Actual Time 6:58 AM EDT 6:41 PM EDT
Civil Twilight 6:31 AM EDT 7:08 PM EDT
Nautical Twilight 6:00 AM EDT 7:40 PM EDT
Astronomical Twilight 5:28 AM EDT 8:11 PM EDT
Moon 2:46 PM EDT 12:13 AM EDT
Length of Visible Light 12h 37m
Length of Day
11h 43m
Tomorrow will be 2m 37s shorter.
First Quarter, 57% of the Moon is Illuminated
Today
First Quarter
Oct 8
Full
Oct 15
Last Quarter
Oct 23
New
Oct 30
First Quarter

Today's Extremes

State Highs State Lows

Community

WunderPhotos

Upload Photos

1,758,215 photos uploaded!

WunderBlogs® & News

Nearby

Air Quality

  Air Quality AQ Index Pollutant
Yesterday Moderate
PM2.5
Yesterday Good
OZONE
Current Moderate
PM2.5
Current Good
OZONE
Thursday Good
PM2.5
Friday Good
PM2.5
Saturday Good
PM2.5

Snow Depth

Station Depth Elevation
No new snow has been reported.

Earthquake Activity

City Distance Mag. Time & Date
No recent earthquake activity has been reported nearby.
Minimum magnitude displayed is 2.5.

Coastal Water Temperatures

Place Temperature
Cape May, NJ 73.0 °F
Reedy Point, DE 71.1 °F
Delaware City, DE 71.1 °F
Marcus Hook, PA 71.1 °F

Nearby Weather Stations